createdAt,value
2022-12-11T00:00:44.633Z,88
2022-12-11T00:01:46.035Z,88
2022-12-11T00:02:47.655Z,88
2022-12-11T00:03:48.278Z,88
2022-12-11T00:04:49.694Z,88
2022-12-11T00:05:50.866Z,88
2022-12-11T00:06:52.285Z,88
2022-12-11T00:07:53.774Z,88
2022-12-11T00:08:54.896Z,88
2022-12-11T00:09:56.034Z,88
2022-12-11T00:10:56.886Z,88
2022-12-11T00:11:58.303Z,88
2022-12-11T00:12:59.447Z,88
2022-12-11T00:14:00.343Z,88
2022-12-11T00:15:01.479Z,88
2022-12-11T00:16:02.900Z,88
2022-12-11T00:17:04.501Z,88
2022-12-11T00:18:05.796Z,88
2022-12-11T00:19:07.213Z,88
2022-12-11T00:20:08.070Z,88
2022-12-11T00:21:09.209Z,88
2022-12-11T00:22:10.347Z,88
2022-12-11T00:23:11.482Z,88
2022-12-11T00:24:12.899Z,88
2022-12-11T00:25:14.455Z,88
2022-12-11T00:26:15.358Z,88
2022-12-11T00:27:16.787Z,88
2022-12-11T00:28:18.200Z,88
2022-12-11T00:29:19.622Z,88
2022-12-11T00:30:20.801Z,88
2022-12-11T00:31:22.282Z,87
2022-12-11T00:32:23.473Z,88
2022-12-11T00:33:24.583Z,87
2022-12-11T00:34:25.756Z,87
2022-12-11T00:35:27.181Z,87
2022-12-11T00:36:28.588Z,87
2022-12-11T00:37:29.718Z,87
2022-12-11T00:38:30.468Z,87
2022-12-11T00:39:31.885Z,87
2022-12-11T00:40:33.062Z,87
2022-12-11T00:41:33.962Z,87
2022-12-11T00:42:35.394Z,87
2022-12-11T00:43:36.789Z,87
2022-12-11T00:44:38.205Z,87
2022-12-11T00:45:39.770Z,87
2022-12-11T00:46:40.881Z,87
2022-12-11T00:47:42.097Z,87
2022-12-11T00:48:43.295Z,87
2022-12-11T00:49:50.826Z,87
2022-12-11T00:50:51.965Z,87
2022-12-11T00:51:53.373Z,87
2022-12-11T00:52:54.510Z,87
2022-12-11T00:53:55.398Z,87
2022-12-11T00:54:56.944Z,87
2022-12-11T00:55:57.839Z,87
2022-12-11T00:56:58.771Z,87
2022-12-11T00:57:59.669Z,87
2022-12-11T00:59:00.310Z,87
2022-12-11T01:00:01.489Z,87
2022-12-11T01:01:03.228Z,87
2022-12-11T01:02:04.616Z,87
2022-12-11T01:03:06.455Z,87
2022-12-11T01:04:07.956Z,87
2022-12-11T01:05:10.796Z,87
2022-12-11T01:06:12.096Z,87
2022-12-11T01:07:13.230Z,87
2022-12-11T01:08:14.937Z,87
2022-12-11T01:09:16.297Z,87
2022-12-11T01:10:17.884Z,88
2022-12-11T01:11:19.091Z,87
2022-12-11T01:12:20.229Z,87
2022-12-11T01:13:21.403Z,87
2022-12-11T01:14:22.581Z,87
2022-12-11T01:15:23.990Z,87
2022-12-11T01:16:25.493Z,87
2022-12-11T01:17:26.990Z,87
2022-12-11T01:18:28.197Z,87
2022-12-11T01:19:29.585Z,87
2022-12-11T01:20:30.996Z,87
2022-12-11T01:21:31.856Z,87
2022-12-11T01:22:33.274Z,87
2022-12-11T01:23:34.407Z,87
2022-12-11T01:24:35.302Z,87
2022-12-11T01:25:36.718Z,87
2022-12-11T01:26:37.849Z,87
2022-12-11T01:27:39.266Z,87
2022-12-11T01:28:40.679Z,87
2022-12-11T01:29:42.100Z,87
2022-12-11T01:30:43.780Z,87
2022-12-11T01:31:44.978Z,87
2022-12-11T01:32:46.393Z,87
2022-12-11T01:33:47.554Z,87
2022-12-11T01:34:48.663Z,87
2022-12-11T01:35:49.799Z,87
2022-12-11T01:36:50.694Z,87
2022-12-11T01:37:52.129Z,87
2022-12-11T01:38:53.244Z,87
2022-12-11T01:39:54.671Z,87
2022-12-11T01:40:55.846Z,87
2022-12-11T01:41:56.978Z,87
2022-12-11T01:42:58.150Z,87
2022-12-11T01:43:59.564Z,87
2022-12-11T01:45:00.177Z,87
2022-12-11T01:46:01.636Z,87
2022-12-11T01:47:03.056Z,87
2022-12-11T01:48:04.173Z,87
2022-12-11T01:49:05.085Z,87
2022-12-11T01:50:06.488Z,87
2022-12-11T01:51:07.663Z,87
2022-12-11T01:52:09.078Z,87
2022-12-11T01:53:10.494Z,87
2022-12-11T01:54:11.664Z,87
2022-12-11T01:55:13.810Z,87
2022-12-11T01:56:15.227Z,87
2022-12-11T01:57:16.365Z,87
2022-12-11T01:58:17.535Z,87
2022-12-11T01:59:18.953Z,87
2022-12-11T02:00:20.094Z,87
2022-12-11T02:01:21.564Z,87
2022-12-11T02:02:23.030Z,87
2022-12-11T02:03:24.081Z,87
2022-12-11T02:04:25.241Z,87
2022-12-11T02:05:26.128Z,87
2022-12-11T02:06:27.548Z,87
2022-12-11T02:07:28.962Z,87
2022-12-11T02:08:30.395Z,87
2022-12-11T02:09:31.532Z,87
2022-12-11T02:10:32.666Z,87
2022-12-11T02:11:33.799Z,87
2022-12-11T02:12:34.936Z,87
2022-12-11T02:13:35.828Z,87
2022-12-11T02:14:37.001Z,87
2022-12-11T02:15:38.416Z,87
2022-12-11T02:16:39.769Z,87
2022-12-11T02:17:41.243Z,87
2022-12-11T02:18:42.655Z,87
2022-12-11T02:19:43.824Z,87
2022-12-11T02:20:45.207Z,87
2022-12-11T02:21:46.377Z,87
2022-12-11T02:22:47.248Z,87
2022-12-11T02:23:48.369Z,87
2022-12-11T02:24:49.808Z,87
2022-12-11T02:25:50.923Z,87
2022-12-11T02:26:52.338Z,87
2022-12-11T02:27:53.753Z,86
2022-12-11T02:28:54.892Z,86
2022-12-11T02:29:56.305Z,86
2022-12-11T02:30:57.725Z,86
2022-12-11T02:31:58.862Z,86
2022-12-11T02:32:59.996Z,86
2022-12-11T02:34:01.171Z,87
2022-12-11T02:35:02.615Z,87
2022-12-11T02:36:04.003Z,87
2022-12-11T02:37:05.421Z,87
2022-12-11T02:38:06.289Z,87
2022-12-11T02:39:07.422Z,87
2022-12-11T02:40:08.836Z,86
2022-12-11T02:41:10.009Z,86
2022-12-11T02:42:11.431Z,86
2022-12-11T02:43:12.613Z,86
2022-12-11T02:44:13.743Z,86
2022-12-11T02:45:14.886Z,86
2022-12-11T02:46:16.424Z,86
2022-12-11T02:47:17.153Z,86
2022-12-11T02:48:18.564Z,86
2022-12-11T02:49:19.463Z,86
2022-12-11T02:50:26.923Z,86
2022-12-11T02:51:28.330Z,86
2022-12-11T02:52:29.503Z,86
2022-12-11T02:53:30.358Z,86
2022-12-11T02:54:31.775Z,86
2022-12-11T02:55:32.914Z,86
2022-12-11T02:56:34.050Z,86
2022-12-11T02:57:35.182Z,86
2022-12-11T02:58:36.602Z,86
2022-12-11T02:59:37.772Z,86
2022-12-11T03:00:39.190Z,86
2022-12-11T03:01:40.259Z,86
2022-12-11T03:02:41.692Z,86
2022-12-11T03:03:43.071Z,86
2022-12-11T03:04:44.214Z,86
2022-12-11T03:05:45.417Z,86
2022-12-11T03:06:46.630Z,86
2022-12-11T03:07:48.267Z,86
2022-12-11T03:08:49.368Z,86
2022-12-11T03:09:50.786Z,86
2022-12-11T03:10:51.919Z,86
2022-12-11T03:11:53.338Z,86
2022-12-11T03:12:55.156Z,86
2022-12-11T03:13:56.571Z,86
2022-12-11T03:14:57.464Z,86
2022-12-11T03:15:59.156Z,86
2022-12-11T03:17:00.265Z,86
2022-12-11T03:18:01.682Z,86
2022-12-11T03:19:03.095Z,86
2022-12-11T03:20:04.513Z,86
2022-12-11T03:21:05.956Z,86
2022-12-11T03:22:07.342Z,85
2022-12-11T03:23:08.479Z,85
2022-12-11T03:24:09.897Z,85
2022-12-11T03:25:12.190Z,85
2022-12-11T03:26:13.771Z,86
2022-12-11T03:27:14.907Z,86
2022-12-11T03:28:16.084Z,86
2022-12-11T03:29:16.975Z,86
2022-12-11T03:30:18.397Z,86
2022-12-11T03:31:19.811Z,86
2022-12-11T03:32:21.100Z,86
2022-12-11T03:33:22.527Z,86
2022-12-11T03:34:23.949Z,85
2022-12-11T03:35:25.355Z,85
2022-12-11T03:36:26.800Z,85
2022-12-11T03:37:28.185Z,85
2022-12-11T03:38:29.326Z,85
2022-12-11T03:39:30.458Z,85
2022-12-11T03:40:31.874Z,85
2022-12-11T03:41:33.292Z,85
2022-12-11T03:42:34.426Z,85
2022-12-11T03:43:35.844Z,85
2022-12-11T03:44:36.705Z,85
2022-12-11T03:45:37.842Z,85
2022-12-11T03:46:39.017Z,85
2022-12-11T03:47:40.434Z,85
2022-12-11T03:48:41.846Z,85
2022-12-11T03:49:43.268Z,85
2022-12-11T03:50:44.678Z,85
2022-12-11T03:51:45.593Z,85
2022-12-11T03:52:47.349Z,85
2022-12-11T03:53:48.772Z,85
2022-12-11T03:54:49.664Z,85
2022-12-11T03:55:51.080Z,85
2022-12-11T03:56:52.210Z,85
2022-12-11T03:57:53.629Z,85
2022-12-11T03:58:55.183Z,85
2022-12-11T03:59:56.593Z,85
2022-12-11T04:00:58.015Z,85
2022-12-11T04:01:59.213Z,85
2022-12-11T04:03:00.111Z,85
2022-12-11T04:04:01.424Z,85
2022-12-11T04:05:02.545Z,86
2022-12-11T04:06:03.969Z,86
2022-12-11T04:07:04.838Z,86
2022-12-11T04:08:06.344Z,86
2022-12-11T04:09:07.638Z,86
2022-12-11T04:10:08.773Z,86
2022-12-11T04:11:10.213Z,86
2022-12-11T04:12:11.327Z,85
2022-12-11T04:13:12.744Z,85
2022-12-11T04:14:14.160Z,85
2022-12-11T04:15:15.575Z,85
2022-12-11T04:16:17.156Z,86
2022-12-11T04:17:18.538Z,86
2022-12-11T04:18:19.951Z,86
2022-12-11T04:19:21.128Z,86
2022-12-11T04:20:22.297Z,86
2022-12-11T04:21:23.435Z,86
2022-12-11T04:22:30.561Z,86
2022-12-11T04:23:31.747Z,86
2022-12-11T04:24:32.853Z,86
2022-12-11T04:25:34.270Z,86
2022-12-11T04:26:35.157Z,86
2022-12-11T04:27:36.577Z,86
2022-12-11T04:28:37.466Z,86
2022-12-11T04:29:38.884Z,86
2022-12-11T04:30:40.020Z,86
2022-12-11T04:31:41.196Z,86
2022-12-11T04:32:42.084Z,86
2022-12-11T04:33:43.503Z,86
2022-12-11T04:34:44.919Z,86
2022-12-11T04:35:46.335Z,86
2022-12-11T04:36:47.508Z,86
2022-12-11T04:37:48.916Z,86
2022-12-11T04:38:50.359Z,86
2022-12-11T04:39:51.471Z,86
2022-12-11T04:40:52.890Z,86
2022-12-11T04:41:54.303Z,86
2022-12-11T04:42:55.437Z,86
2022-12-11T04:43:56.858Z,86
2022-12-11T04:44:57.752Z,86
2022-12-11T04:45:59.310Z,86
2022-12-11T04:47:00.729Z,86
2022-12-11T04:48:01.590Z,86
2022-12-11T04:49:03.000Z,85
2022-12-11T04:50:04.414Z,85
2022-12-11T04:51:05.833Z,85
2022-12-11T04:52:06.724Z,85
2022-12-11T04:53:07.580Z,85
2022-12-11T04:54:08.745Z,85
2022-12-11T04:55:11.146Z,86
2022-12-11T04:56:12.576Z,86
2022-12-11T04:57:13.995Z,86
2022-12-11T04:58:14.886Z,86
2022-12-11T04:59:16.056Z,86
2022-12-11T05:00:17.473Z,86
2022-12-11T05:01:19.280Z,86
2022-12-11T05:02:20.804Z,86
2022-12-11T05:03:22.248Z,86
2022-12-11T05:04:23.076Z,86
2022-12-11T05:05:24.245Z,86
2022-12-11T05:06:25.106Z,86
2022-12-11T05:07:26.518Z,86
2022-12-11T05:08:28.085Z,86
2022-12-11T05:09:29.242Z,85
2022-12-11T05:10:30.353Z,85
2022-12-11T05:11:31.893Z,85
2022-12-11T05:12:33.306Z,85
2022-12-11T05:13:34.450Z,85
2022-12-11T05:14:35.581Z,85
2022-12-11T05:15:36.715Z,85
2022-12-11T05:16:37.884Z,85
2022-12-11T05:17:39.303Z,85
2022-12-11T05:18:39.915Z,85
2022-12-11T05:19:41.091Z,85
2022-12-11T05:20:41.945Z,85
2022-12-11T05:21:43.275Z,85
2022-12-11T05:22:44.131Z,85
2022-12-11T05:23:45.315Z,85
2022-12-11T05:24:46.754Z,85
2022-12-11T05:25:47.867Z,85
2022-12-11T05:26:49.002Z,85
2022-12-11T05:27:50.420Z,85
2022-12-11T05:28:51.834Z,85
2022-12-11T05:30:00.386Z,84
2022-12-11T05:31:01.792Z,85
2022-12-11T05:32:03.021Z,85
2022-12-11T05:33:04.439Z,85
2022-12-11T05:34:05.574Z,85
2022-12-11T05:35:06.987Z,84
2022-12-11T05:36:08.405Z,84
2022-12-11T05:37:10.005Z,84
2022-12-11T05:38:11.417Z,84
2022-12-11T05:39:12.306Z,84
2022-12-11T05:40:19.218Z,84
2022-12-11T05:41:20.387Z,84
2022-12-11T05:42:29.480Z,84
2022-12-11T05:43:30.894Z,84
2022-12-11T05:44:32.069Z,84
2022-12-11T05:45:33.207Z,84
2022-12-11T05:46:34.798Z,84
2022-12-11T05:47:36.185Z,84
2022-12-11T05:48:37.372Z,85
2022-12-11T05:49:38.784Z,85
2022-12-11T05:50:40.201Z,85
2022-12-11T05:51:41.618Z,85
2022-12-11T05:52:43.034Z,84
2022-12-11T05:53:44.453Z,84
2022-12-11T05:54:45.303Z,84
2022-12-11T05:55:46.747Z,84
2022-12-11T05:57:56.207Z,84
2022-12-11T05:58:57.061Z,84
2022-12-11T05:59:58.196Z,84
2022-12-11T06:00:59.610Z,84
2022-12-11T06:02:01.115Z,84
2022-12-11T06:03:02.873Z,84
2022-12-11T06:04:04.066Z,84
2022-12-11T06:05:05.480Z,84
2022-12-11T06:06:06.621Z,84
2022-12-11T06:07:08.039Z,84
2022-12-11T06:08:09.464Z,84
2022-12-11T06:09:10.936Z,84
2022-12-11T06:10:12.352Z,84
2022-12-11T06:11:13.230Z,84
2022-12-11T06:12:14.069Z,84
2022-12-11T06:13:14.966Z,84
2022-12-11T06:14:16.101Z,84
2022-12-11T06:15:17.273Z,84
2022-12-11T06:16:18.517Z,84
2022-12-11T06:17:19.935Z,84
2022-12-11T06:18:21.067Z,84
2022-12-11T06:19:22.239Z,84
2022-12-11T06:20:23.657Z,84
2022-12-11T06:21:24.827Z,84
2022-12-11T06:22:25.997Z,84
2022-12-11T06:23:27.171Z,84
2022-12-11T06:24:28.580Z,84
2022-12-11T06:25:29.999Z,84
2022-12-11T06:26:31.156Z,84
2022-12-11T06:27:32.549Z,84
2022-12-11T06:28:33.966Z,84
2022-12-11T06:29:35.100Z,84
2022-12-11T06:30:39.837Z,84
2022-12-11T06:31:41.400Z,84
2022-12-11T06:32:42.516Z,84
2022-12-11T06:33:43.933Z,84
2022-12-11T06:34:45.348Z,84
2022-12-11T06:35:46.206Z,85
2022-12-11T06:36:47.341Z,85
2022-12-11T06:37:48.517Z,85
2022-12-11T06:38:49.933Z,84
2022-12-11T06:39:51.075Z,85
2022-12-11T06:40:52.490Z,85
2022-12-11T06:41:53.926Z,85
2022-12-11T06:42:55.325Z,84
2022-12-11T06:43:56.459Z,84
2022-12-11T06:44:57.870Z,85
2022-12-11T06:46:05.219Z,85
2022-12-11T06:47:06.421Z,85
2022-12-11T06:48:07.556Z,85
2022-12-11T06:49:08.691Z,85
2022-12-11T06:50:10.111Z,85
2022-12-11T06:51:11.001Z,85
2022-12-11T06:52:19.292Z,85
2022-12-11T06:53:20.711Z,85
2022-12-11T06:54:21.880Z,85
2022-12-11T06:55:23.019Z,85
2022-12-11T06:56:24.436Z,85
2022-12-11T06:57:25.886Z,85
2022-12-11T06:58:26.780Z,85
2022-12-11T06:59:27.919Z,85
2022-12-11T07:00:29.367Z,85
2022-12-11T07:01:30.954Z,85
2022-12-11T07:02:31.868Z,85
2022-12-11T07:03:33.277Z,85
2022-12-11T07:04:34.446Z,85
2022-12-11T07:05:35.615Z,85
2022-12-11T07:06:37.035Z,85
2022-12-11T07:07:38.450Z,85
2022-12-11T07:08:39.629Z,85
2022-12-11T07:09:40.766Z,85
2022-12-11T07:10:41.895Z,85
2022-12-11T07:11:43.033Z,85
2022-12-11T07:12:44.483Z,85
2022-12-11T07:13:45.377Z,85
2022-12-11T07:14:46.508Z,85
2022-12-11T07:15:47.926Z,85
2022-12-11T07:16:49.166Z,85
2022-12-11T07:17:50.282Z,85
2022-12-11T07:18:51.698Z,85
2022-12-11T07:19:52.830Z,85
2022-12-11T07:20:54.245Z,85
2022-12-11T07:21:55.139Z,85
2022-12-11T07:22:56.556Z,85
2022-12-11T07:23:57.692Z,85
2022-12-11T07:25:04.551Z,85
2022-12-11T07:26:05.965Z,85
2022-12-11T07:27:07.382Z,85
2022-12-11T07:28:17.214Z,85
2022-12-11T07:29:18.714Z,85
2022-12-11T07:30:19.610Z,85
2022-12-11T07:31:20.979Z,85
2022-12-11T07:32:22.832Z,85
2022-12-11T07:33:24.053Z,85
2022-12-11T07:34:25.466Z,85
2022-12-11T07:35:26.603Z,85
2022-12-11T07:36:27.459Z,85
2022-12-11T07:37:28.875Z,85
2022-12-11T07:38:29.775Z,85
2022-12-11T07:39:30.909Z,85
2022-12-11T07:40:31.800Z,85
2022-12-11T07:41:33.088Z,85
2022-12-11T07:42:34.222Z,85
2022-12-11T07:43:35.722Z,85
2022-12-11T07:44:36.828Z,85
2022-12-11T07:45:38.345Z,85
2022-12-11T07:46:39.588Z,85
2022-12-11T07:47:40.443Z,85
2022-12-11T07:48:41.583Z,85
2022-12-11T07:49:42.720Z,85
2022-12-11T07:50:44.134Z,85
2022-12-11T07:51:45.273Z,85
2022-12-11T07:52:46.447Z,85
2022-12-11T07:53:47.620Z,85
2022-12-11T07:54:48.814Z,85
2022-12-11T07:55:49.954Z,85
2022-12-11T07:56:54.577Z,85
2022-12-11T07:57:55.430Z,85
2022-12-11T07:58:56.592Z,85
2022-12-11T07:59:57.705Z,85
2022-12-11T08:00:59.330Z,85
2022-12-11T08:02:00.547Z,85
2022-12-11T08:03:02.023Z,85
2022-12-11T08:04:02.880Z,85
2022-12-11T08:05:04.286Z,85
2022-12-11T08:06:05.428Z,85
2022-12-11T08:07:06.838Z,85
2022-12-11T08:08:08.160Z,84
2022-12-11T08:09:09.636Z,84
2022-12-11T08:10:10.775Z,84
2022-12-11T08:11:11.911Z,84
2022-12-11T08:12:13.324Z,84
2022-12-11T08:13:14.961Z,84
2022-12-11T08:14:15.911Z,84
2022-12-11T08:15:17.200Z,84
2022-12-11T08:16:18.325Z,84
2022-12-11T08:17:29.030Z,84
2022-12-11T08:18:31.507Z,84
2022-12-11T08:19:32.117Z,84
2022-12-11T08:20:33.283Z,84
2022-12-11T08:21:34.697Z,84
2022-12-11T08:22:35.837Z,84
2022-12-11T08:23:37.249Z,84
2022-12-11T08:24:38.666Z,84
2022-12-11T08:25:40.081Z,84
2022-12-11T08:26:41.502Z,84
2022-12-11T08:27:43.037Z,84
2022-12-11T08:28:44.204Z,84
2022-12-11T08:29:45.655Z,84
2022-12-11T08:30:46.642Z,84
2022-12-11T08:31:47.471Z,84
2022-12-11T08:32:49.149Z,84
2022-12-11T08:33:50.563Z,84
2022-12-11T08:34:51.452Z,84
2022-12-11T08:35:52.610Z,84
2022-12-11T08:36:53.746Z,84
2022-12-11T08:37:54.882Z,84
2022-12-11T08:38:56.072Z,84
2022-12-11T08:39:56.697Z,84
2022-12-11T08:40:58.119Z,84
2022-12-11T08:41:59.295Z,84
2022-12-11T08:43:00.482Z,84
2022-12-11T08:44:01.917Z,84
2022-12-11T08:45:03.179Z,84
2022-12-11T08:46:04.194Z,84
2022-12-11T08:47:05.588Z,84
2022-12-11T08:48:07.003Z,84
2022-12-11T08:49:07.898Z,84
2022-12-11T08:50:09.031Z,84
2022-12-11T08:51:09.894Z,84
2022-12-11T08:52:11.069Z,83
2022-12-11T08:53:12.202Z,83
2022-12-11T08:54:13.616Z,83
2022-12-11T08:55:15.297Z,83
2022-12-11T08:56:16.437Z,83
2022-12-11T08:57:17.570Z,83
2022-12-11T08:58:19.014Z,83
2022-12-11T08:59:20.429Z,83
2022-12-11T09:00:21.316Z,83
2022-12-11T09:01:23.074Z,83
2022-12-11T09:02:24.165Z,83
2022-12-11T09:03:25.001Z,83
2022-12-11T09:04:26.138Z,83
2022-12-11T09:05:26.996Z,83
2022-12-11T09:06:28.413Z,83
2022-12-11T09:07:29.545Z,83
2022-12-11T09:08:30.551Z,83
2022-12-11T09:09:31.392Z,83
2022-12-11T09:10:32.244Z,83
2022-12-11T09:11:33.416Z,83
2022-12-11T09:12:34.549Z,83
2022-12-11T09:13:35.687Z,83
2022-12-11T09:14:37.102Z,83
2022-12-11T09:15:38.590Z,83
2022-12-11T09:16:39.740Z,83
2022-12-11T09:17:40.352Z,83
2022-12-11T09:18:41.241Z,83
2022-12-11T09:19:42.409Z,83
2022-12-11T09:20:43.822Z,83
2022-12-11T09:21:45.246Z,83
2022-12-11T09:22:46.659Z,83
2022-12-11T09:23:47.835Z,83
2022-12-11T09:24:49.248Z,83
2022-12-11T09:25:50.664Z,83
2022-12-11T09:26:52.084Z,83
2022-12-11T09:27:53.266Z,83
2022-12-11T09:28:54.411Z,83
2022-12-11T09:29:55.822Z,83
2022-12-11T09:30:57.129Z,83
2022-12-11T09:31:58.237Z,83
2022-12-11T09:32:59.649Z,83
2022-12-11T09:34:00.541Z,83
2022-12-11T09:35:01.677Z,83
2022-12-11T09:36:03.091Z,83
2022-12-11T09:37:04.508Z,83
2022-12-11T09:38:05.923Z,83
2022-12-11T09:39:07.063Z,83
2022-12-11T09:40:08.959Z,82
2022-12-11T09:41:10.373Z,82
2022-12-11T09:42:11.515Z,82
2022-12-11T09:43:12.416Z,82
2022-12-11T09:44:13.268Z,82
2022-12-11T09:45:14.935Z,82
2022-12-11T09:46:15.937Z,82
2022-12-11T09:47:16.861Z,82
2022-12-11T09:48:18.275Z,82
2022-12-11T09:49:19.691Z,82
2022-12-11T09:50:21.103Z,82
2022-12-11T09:51:22.523Z,82
2022-12-11T09:52:23.706Z,82
2022-12-11T09:53:25.464Z,82
2022-12-11T09:54:27.594Z,82
2022-12-11T09:55:28.732Z,82
2022-12-11T09:56:29.876Z,81
2022-12-11T09:57:31.281Z,81
2022-12-11T09:58:32.450Z,81
2022-12-11T09:59:33.339Z,81
2022-12-11T10:00:34.757Z,81
2022-12-11T10:01:36.353Z,81
2022-12-11T10:02:37.666Z,81
2022-12-11T10:03:38.502Z,81
2022-12-11T10:04:39.916Z,81
2022-12-11T10:05:41.330Z,81
2022-12-11T10:06:42.227Z,81
2022-12-11T10:07:43.684Z,81
2022-12-11T10:08:45.196Z,81
2022-12-11T10:09:46.611Z,81
2022-12-11T10:10:48.023Z,81
2022-12-11T10:11:57.293Z,81
2022-12-11T10:12:58.600Z,81
2022-12-11T10:13:59.840Z,81
2022-12-11T10:15:01.449Z,81
2022-12-11T10:16:03.173Z,81
2022-12-11T10:17:04.590Z,81
2022-12-11T10:18:06.084Z,80
2022-12-11T10:19:07.224Z,80
2022-12-11T10:20:08.475Z,80
2022-12-11T10:21:09.611Z,80
2022-12-11T10:22:11.025Z,80
2022-12-11T10:23:12.166Z,80
2022-12-11T10:24:20.233Z,80
2022-12-11T10:25:27.016Z,80
2022-12-11T10:26:29.677Z,80
2022-12-11T10:27:30.798Z,80
2022-12-11T10:28:32.212Z,80
2022-12-11T10:29:33.348Z,80
2022-12-11T10:30:35.093Z,80
2022-12-11T10:31:36.571Z,80
2022-12-11T10:32:37.543Z,80
2022-12-11T10:33:38.937Z,80
2022-12-11T10:34:40.153Z,80
2022-12-11T10:35:41.557Z,80
2022-12-11T10:36:42.973Z,80
2022-12-11T10:37:44.388Z,80
2022-12-11T10:38:45.522Z,80
2022-12-11T10:39:46.945Z,80
2022-12-11T10:40:48.123Z,80
2022-12-11T10:41:49.251Z,80
2022-12-11T10:42:50.110Z,80
2022-12-11T10:43:50.972Z,80
2022-12-11T10:44:52.387Z,80
2022-12-11T10:45:53.812Z,80
2022-12-11T10:46:55.264Z,80
2022-12-11T10:47:56.204Z,80
2022-12-11T10:48:56.821Z,80
2022-12-11T10:49:57.957Z,80
2022-12-11T10:50:59.091Z,80
2022-12-11T10:52:00.228Z,80
2022-12-11T10:53:01.364Z,80
2022-12-11T10:54:07.932Z,80
2022-12-11T10:55:10.491Z,80
2022-12-11T10:56:11.574Z,80
2022-12-11T10:57:12.427Z,80
2022-12-11T10:58:13.843Z,80
2022-12-11T10:59:21.166Z,80
2022-12-11T11:00:25.386Z,80
2022-12-11T11:01:26.840Z,80
2022-12-11T11:02:28.394Z,80
2022-12-11T11:03:29.959Z,80
2022-12-11T11:04:31.336Z,80
2022-12-11T11:05:32.749Z,80
2022-12-11T11:06:34.167Z,80
2022-12-11T11:07:35.297Z,80
2022-12-11T11:08:36.712Z,80
2022-12-11T11:09:37.851Z,80
2022-12-11T11:10:39.045Z,80
2022-12-11T11:11:39.948Z,80
2022-12-11T11:12:41.360Z,80
2022-12-11T11:13:42.530Z,80
2022-12-11T11:14:43.703Z,80
2022-12-11T11:15:45.074Z,80
2022-12-11T11:16:46.494Z,79
2022-12-11T11:17:56.708Z,79
2022-12-11T11:18:57.863Z,79
2022-12-11T11:19:59.032Z,79
2022-12-11T11:21:00.449Z,79
2022-12-11T11:22:01.306Z,79
2022-12-11T11:23:02.439Z,79
2022-12-11T11:24:03.334Z,79
2022-12-11T11:25:04.502Z,79
2022-12-11T11:26:05.642Z,79
2022-12-11T11:27:15.053Z,79
2022-12-11T11:28:16.455Z,79
2022-12-11T11:29:17.876Z,79
2022-12-11T11:30:19.289Z,79
2022-12-11T11:31:20.565Z,79
2022-12-11T11:32:22.028Z,79
2022-12-11T11:33:22.920Z,79
2022-12-11T11:34:24.354Z,79
2022-12-11T11:35:25.476Z,79
2022-12-11T11:36:26.607Z,79
2022-12-11T11:37:28.433Z,79
2022-12-11T11:38:29.853Z,79
2022-12-11T11:39:30.705Z,79
2022-12-11T11:40:31.601Z,79
2022-12-11T11:41:32.459Z,79
2022-12-11T11:42:33.635Z,79
2022-12-11T11:43:34.528Z,79
2022-12-11T11:44:35.380Z,79
2022-12-11T11:45:36.795Z,79
2022-12-11T11:46:38.616Z,79
2022-12-11T11:47:39.861Z,79
2022-12-11T11:48:40.996Z,79
2022-12-11T11:49:42.436Z,79
2022-12-11T11:50:43.831Z,79
2022-12-11T11:51:45.005Z,79
2022-12-11T11:52:46.422Z,79
2022-12-11T11:53:47.835Z,79
2022-12-11T11:54:49.248Z,79
2022-12-11T11:55:50.668Z,79
2022-12-11T11:56:52.085Z,79
2022-12-11T11:57:53.266Z,79
2022-12-11T11:58:54.395Z,79
2022-12-11T11:59:55.576Z,79
2022-12-11T12:00:56.763Z,79
2022-12-11T12:01:58.175Z,79
2022-12-11T12:02:59.720Z,79
2022-12-11T12:04:01.168Z,79
2022-12-11T12:05:01.816Z,79
2022-12-11T12:06:03.196Z,79
2022-12-11T12:07:10.575Z,79
2022-12-11T12:08:12.164Z,79
2022-12-11T12:09:13.412Z,79
2022-12-11T12:10:15.131Z,78
2022-12-11T12:11:16.533Z,78
2022-12-11T12:12:34.096Z,78
2022-12-11T12:13:51.341Z,78
2022-12-11T12:14:53.815Z,78
2022-12-11T12:15:54.702Z,78
2022-12-11T12:16:56.465Z,78
2022-12-11T12:17:57.881Z,78
2022-12-11T12:18:59.147Z,78
2022-12-11T12:20:00.521Z,78
2022-12-11T12:21:01.958Z,78
2022-12-11T12:22:03.069Z,78
2022-12-11T12:23:03.968Z,78
2022-12-11T12:24:05.099Z,78
2022-12-11T12:25:06.233Z,78
2022-12-11T12:26:07.406Z,78
2022-12-11T12:27:53.112Z,78
2022-12-11T12:28:54.690Z,78
2022-12-11T12:29:55.817Z,78
2022-12-11T12:30:57.231Z,78
2022-12-11T12:31:58.588Z,78
2022-12-11T12:32:59.708Z,78
2022-12-11T12:34:00.597Z,78
2022-12-11T12:35:02.025Z,78
2022-12-11T12:36:08.037Z,78
2022-12-11T12:37:09.447Z,78
2022-12-11T12:38:10.840Z,78
2022-12-11T12:39:12.020Z,78
2022-12-11T12:40:13.184Z,78
2022-12-11T12:41:14.337Z,78
2022-12-11T12:42:16.967Z,78
2022-12-11T12:43:18.057Z,78
2022-12-11T12:44:19.757Z,78
2022-12-11T12:45:23.905Z,78
2022-12-11T12:46:25.013Z,78
2022-12-11T12:47:26.155Z,78
2022-12-11T12:48:27.570Z,78
2022-12-11T12:49:28.704Z,78
2022-12-11T12:50:30.126Z,78
2022-12-11T12:51:31.563Z,78
2022-12-11T12:52:32.676Z,78
2022-12-11T12:53:33.810Z,77
2022-12-11T12:54:35.223Z,78
2022-12-11T12:55:36.362Z,78
2022-12-11T12:56:37.779Z,78
2022-12-11T12:57:39.188Z,78
2022-12-11T12:58:40.357Z,78
2022-12-11T12:59:41.791Z,78
2022-12-11T13:00:43.817Z,78
2022-12-11T13:01:45.592Z,78
2022-12-11T13:02:46.845Z,78
2022-12-11T13:03:48.019Z,78
2022-12-11T13:04:56.952Z,78
2022-12-11T13:05:58.129Z,78
2022-12-11T13:06:59.325Z,78
2022-12-11T13:08:00.775Z,78
2022-12-11T13:09:01.679Z,78
2022-12-11T13:10:03.096Z,78
2022-12-11T13:11:04.507Z,78
2022-12-11T13:12:05.397Z,78
2022-12-11T13:13:06.536Z,78
2022-12-11T13:14:07.392Z,78
2022-12-11T13:15:08.854Z,78
2022-12-11T13:16:10.352Z,78
2022-12-11T13:17:11.538Z,79
2022-12-11T13:18:12.730Z,79
2022-12-11T13:19:13.589Z,79
2022-12-11T13:20:14.728Z,79
2022-12-11T13:21:16.141Z,79
2022-12-11T13:22:17.579Z,79
2022-12-11T13:23:18.971Z,79
2022-12-11T13:24:20.105Z,79
2022-12-11T13:25:21.518Z,79
2022-12-11T13:26:22.654Z,79
2022-12-11T13:27:23.559Z,79
2022-12-11T13:28:24.974Z,79
2022-12-11T13:29:26.155Z,79
2022-12-11T13:30:27.562Z,79
2022-12-11T13:31:28.824Z,79
2022-12-11T13:32:29.980Z,79
2022-12-11T13:33:31.391Z,79
2022-12-11T13:34:32.802Z,79
2022-12-11T13:35:33.939Z,79
2022-12-11T13:36:35.355Z,79
2022-12-11T13:37:36.824Z,79
2022-12-11T13:38:37.933Z,79
2022-12-11T13:39:39.353Z,79
2022-12-11T13:40:40.486Z,79
2022-12-11T13:41:41.903Z,79
2022-12-11T13:42:43.320Z,79
2022-12-11T13:43:44.453Z,79
2022-12-11T13:44:45.352Z,80
2022-12-11T13:45:46.530Z,80
2022-12-11T13:46:47.968Z,80
2022-12-11T13:47:48.578Z,80
2022-12-11T13:48:49.437Z,80
2022-12-11T13:49:50.854Z,80
2022-12-11T13:50:52.268Z,80
2022-12-11T13:51:53.698Z,80
2022-12-11T13:52:54.839Z,80
2022-12-11T13:53:55.955Z,80
2022-12-11T13:54:57.088Z,80
2022-12-11T13:55:58.510Z,80
2022-12-11T13:56:59.652Z,80
2022-12-11T13:58:00.826Z,80
2022-12-11T13:59:01.720Z,80
2022-12-11T14:00:03.129Z,80
2022-12-11T14:01:04.448Z,80
2022-12-11T14:02:05.917Z,79
2022-12-11T14:03:07.342Z,79
2022-12-11T14:04:08.747Z,79
2022-12-11T14:05:11.442Z,79
2022-12-11T14:06:19.605Z,79
2022-12-11T14:07:20.774Z,79
2022-12-11T14:08:22.380Z,79
2022-12-11T14:09:23.665Z,79
2022-12-11T14:10:24.803Z,79
2022-12-11T14:11:25.939Z,79
2022-12-11T14:12:26.830Z,79
2022-12-11T14:13:27.701Z,79
2022-12-11T14:14:29.212Z,79
2022-12-11T14:15:30.099Z,79
2022-12-11T14:16:31.672Z,80
2022-12-11T14:17:33.134Z,80
2022-12-11T14:18:34.562Z,80
2022-12-11T14:19:35.687Z,80
2022-12-11T14:20:36.889Z,80
2022-12-11T14:21:37.781Z,80
2022-12-11T14:22:38.684Z,80
2022-12-11T14:23:40.121Z,80
2022-12-11T14:24:41.510Z,80
2022-12-11T14:25:42.682Z,80
2022-12-11T14:26:43.814Z,80
2022-12-11T14:27:44.988Z,80
2022-12-11T14:28:46.152Z,80
2022-12-11T14:29:47.261Z,80
2022-12-11T14:30:48.674Z,80
2022-12-11T14:31:49.725Z,80
2022-12-11T14:32:51.101Z,80
2022-12-11T14:33:52.519Z,80
2022-12-11T14:34:53.705Z,80
2022-12-11T14:35:54.839Z,80
2022-12-11T14:36:55.980Z,80
2022-12-11T14:37:57.114Z,80
2022-12-11T14:38:58.310Z,80